Time;durP1;ratioP1;P1;durP2;ratioP2;P2;SDS_P1;SDS_P2;PMS_P1;PMS_P2;Temp;Humidity;BMP_temperature;BMP_pressure;BME280_temperature;BME280_humidity;BME280_pressure;Samples;Min_cycle;Max_cycle;Signal;HPM_P1;HPM_P2
2023/02/25 00:01:07;;;;;;;16.08;10.40;;;8.70;57.40;;;;;;4994166;28;20046;-76
2023/02/25 00:03:34;;;;;;;16.35;10.98;;;8.70;57.40;;;;;;4995769;28;20042;-76
2023/02/25 00:06:01;;;;;;;16.55;11.32;;;8.70;57.40;;;;;;5010195;28;20125;-76
2023/02/25 00:08:28;;;;;;;16.73;10.50;;;8.70;57.30;;;;;;4992970;28;20045;-75
2023/02/25 00:10:59;;;;;;;16.17;10.40;;;8.70;57.30;;;;;;4996992;28;20030;-76
2023/02/25 00:13:25;;;;;;;19.55;10.73;;;8.70;57.40;;;;;;4995621;28;20061;-75
2023/02/25 00:15:52;;;;;;;18.25;11.52;;;8.70;57.40;;;;;;4981545;28;20045;-75
2023/02/25 00:18:17;;;;;;;16.35;10.05;;;8.70;57.40;;;;;;4995887;28;20037;-75
2023/02/25 00:20:43;;;;;;;18.75;10.95;;;8.70;57.40;;;;;;5010776;28;20038;-75
2023/02/25 00:23:09;;;;;;;18.25;11.43;;;8.70;57.40;;;;;;4994257;28;20133;-75
2023/02/25 00:25:35;;;;;;;20.25;11.05;;;8.70;57.30;;;;;;4996562;28;20449;-74
2023/02/25 00:28:05;;;;;;;15.68;10.52;;;8.70;57.30;;;;;;4994980;28;20081;-75
2023/02/25 00:30:32;;;;;;;18.45;10.57;;;8.70;57.40;;;;;;4996129;28;20060;-75
2023/02/25 00:32:58;;;;;;;17.35;10.70;;;8.70;57.30;;;;;;4992572;28;20413;-75
2023/02/25 00:35:24;;;;;;;16.30;10.00;;;8.70;57.30;;;;;;4994158;28;20049;-75
2023/02/25 00:37:51;;;;;;;16.38;10.20;;;8.70;57.50;;;;;;5009520;28;20069;-76
2023/02/25 00:40:17;;;;;;;17.77;9.50;;;8.70;57.40;;;;;;4994164;28;20042;-74
2023/02/25 00:42:43;;;;;;;17.58;10.35;;;8.70;57.50;;;;;;4992390;28;20143;-76
2023/02/25 00:45:10;;;;;;;16.38;9.88;;;8.70;57.70;;;;;;4990538;28;20088;-75
2023/02/25 00:47:37;;;;;;;19.90;10.82;;;8.70;57.70;;;;;;4992354;28;20038;-75
2023/02/25 00:50:06;;;;;;;17.30;9.95;;;8.70;57.60;;;;;;4993629;28;20152;-76
2023/02/25 00:52:32;;;;;;;14.90;9.73;;;8.80;57.60;;;;;;5008079;28;20034;-76
2023/02/25 00:54:58;;;;;;;17.58;10.98;;;8.80;57.60;;;;;;4994057;28;20076;-76
2023/02/25 00:57:24;;;;;;;17.65;10.63;;;8.70;57.40;;;;;;5009639;28;20510;-76
2023/02/25 00:59:50;;;;;;;15.57;10.23;;;8.80;57.50;;;;;;5009331;28;20031;-76
2023/02/25 01:02:19;;;;;;;15.20;10.48;;;8.70;57.50;;;;;;4993524;28;20040;-77
2023/02/25 01:04:45;;;;;;;16.08;10.38;;;8.80;57.50;;;;;;4995374;28;20120;-76
2023/02/25 01:07:11;;;;;;;16.60;10.05;;;8.70;57.30;;;;;;5001118;28;20129;-76
2023/02/25 01:09:38;;;;;;;14.93;9.40;;;8.80;57.40;;;;;;5008887;28;20042;-74
2023/02/25 01:12:07;;;;;;;17.65;10.20;;;8.80;57.40;;;;;;4992898;28;20038;-74
2023/02/25 01:14:34;;;;;;;18.15;10.13;;;8.80;57.40;;;;;;4981888;28;20045;-76
2023/02/25 01:17:08;;;;;;;17.55;10.52;;;8.80;57.40;;;;;;5009532;28;20045;-75
2023/02/25 01:19:38;;;;;;;18.33;10.27;;;8.80;57.50;;;;;;5010620;28;20420;-75
2023/02/25 01:22:07;;;;;;;17.83;10.65;;;8.80;57.40;;;;;;4994902;28;20042;-75
2023/02/25 01:24:33;;;;;;;15.75;9.80;;;8.80;57.40;;;;;;4995590;28;20034;-75
2023/02/25 01:27:01;;;;;;;18.20;10.32;;;8.80;57.40;;;;;;4995085;28;20517;-76
2023/02/25 01:29:30;;;;;;;18.92;10.77;;;8.80;57.40;;;;;;5009703;28;20417;-75
2023/02/25 01:31:59;;;;;;;16.05;9.98;;;8.80;57.50;;;;;;5008474;28;20058;-76
2023/02/25 01:34:29;;;;;;;20.92;10.65;;;8.80;57.40;;;;;;4991618;28;20196;-75
2023/02/25 01:37:01;;;;;;;15.00;10.20;;;8.80;57.50;;;;;;4991483;28;20129;-75
2023/02/25 01:39:28;;;;;;;17.65;10.20;;;8.80;57.50;;;;;;5009506;28;20516;-75
2023/02/25 01:42:01;;;;;;;16.55;10.13;;;8.80;57.50;;;;;;4994871;28;20042;-77
2023/02/25 01:44:36;;;;;;;14.30;9.60;;;8.80;57.50;;;;;;5001942;28;20092;-76
2023/02/25 01:47:02;;;;;;;14.13;9.13;;;8.80;57.60;;;;;;4998490;28;20034;-76
2023/02/25 01:49:45;;;;;;;18.00;10.32;;;8.80;57.50;;;;;;4997283;28;20122;-74
2023/02/25 01:52:24;;;;;;;16.33;9.20;;;8.80;57.50;;;;;;5008485;28;20471;-75
2023/02/25 01:54:55;;;;;;;15.45;9.38;;;8.80;57.50;;;;;;5008639;28;20566;-75
2023/02/25 01:57:22;;;;;;;13.82;9.73;;;8.80;57.50;;;;;;4982453;28;20065;-75
2023/02/25 01:59:50;;;;;;;15.18;9.88;;;8.80;57.60;;;;;;5009262;28;20041;-76
2023/02/25 02:02:21;;;;;;;16.60;9.18;;;8.80;57.50;;;;;;5008259;28;20077;-75
2023/02/25 02:04:50;;;;;;;14.65;9.25;;;8.80;57.50;;;;;;4994106;28;20038;-75
2023/02/25 02:07:20;;;;;;;17.77;10.00;;;8.80;57.50;;;;;;5009287;28;20040;-74
2023/02/25 02:09:55;;;;;;;17.13;9.90;;;8.80;57.50;;;;;;5008946;28;20129;-75
2023/02/25 02:12:32;;;;;;;14.13;9.25;;;8.90;57.60;;;;;;4979788;28;20042;-75
2023/02/25 02:15:03;;;;;;;15.05;9.32;;;8.80;57.60;;;;;;5008589;28;20056;-75
2023/02/25 02:17:36;;;;;;;16.42;9.63;;;8.80;57.60;;;;;;5009321;28;20041;-76
2023/02/25 02:20:19;;;;;;;14.75;9.20;;;8.90;57.70;;;;;;5009110;28;20042;-76
2023/02/25 02:22:53;;;;;;;16.13;9.07;;;8.90;57.80;;;;;;4995387;28;20521;-75
2023/02/25 02:25:43;;;;;;;15.10;9.30;;;8.90;57.60;;;;;;5012361;28;20037;-75
2023/02/25 02:28:40;;;;;;;14.38;9.07;;;8.90;57.60;;;;;;5012926;28;20077;-75
2023/02/25 02:31:34;;;;;;;14.40;8.73;;;8.80;57.50;;;;;;4994620;28;20058;-75
2023/02/25 02:34:21;;;;;;;15.60;9.55;;;8.90;57.50;;;;;;5012707;28;20042;-75
2023/02/25 02:36:56;;;;;;;14.80;10.05;;;8.90;57.70;;;;;;5012203;28;20042;-75
2023/02/25 02:39:31;;;;;;;19.40;9.82;;;8.90;57.70;;;;;;4997419;28;20041;-75
2023/02/25 02:42:14;;;;;;;16.55;9.82;;;8.80;57.60;;;;;;4996365;28;20045;-75
2023/02/25 02:44:53;;;;;;;16.77;9.48;;;8.90;57.60;;;;;;5011533;28;20030;-75
2023/02/25 02:47:28;;;;;;;15.77;9.63;;;8.90;57.60;;;;;;4979197;28;20045;-76
2023/02/25 02:50:03;;;;;;;15.75;10.50;;;8.90;57.50;;;;;;5012605;28;20498;-76
2023/02/25 02:52:36;;;;;;;15.63;9.30;;;8.80;57.50;;;;;;5013221;28;20125;-76
2023/02/25 02:55:21;;;;;;;15.88;9.60;;;8.90;57.50;;;;;;5012199;28;20377;-75
2023/02/25 02:57:52;;;;;;;14.85;9.23;;;8.90;57.50;;;;;;4995416;28;20037;-76
2023/02/25 03:00:25;;;;;;;13.43;8.75;;;8.90;57.60;;;;;;5011802;28;20381;-76
2023/02/25 03:03:04;;;;;;;13.85;8.70;;;8.90;57.60;;;;;;4984346;28;20045;-76
2023/02/25 03:05:33;;;;;;;12.70;8.52;;;8.90;57.70;;;;;;4997441;28;20041;-75
2023/02/25 03:08:06;;;;;;;15.93;9.57;;;8.90;57.70;;;;;;5012264;28;20069;-76
2023/02/25 03:10:34;;;;;;;15.13;9.43;;;8.90;57.70;;;;;;4997413;28;20517;-76
2023/02/25 03:13:00;;;;;;;13.90;8.68;;;8.90;57.80;;;;;;5012176;28;20132;-74
2023/02/25 03:15:28;;;;;;;13.63;8.93;;;8.90;57.70;;;;;;5010902;28;20046;-74
2023/02/25 03:18:04;;;;;;;14.93;9.05;;;8.90;57.70;;;;;;4996100;28;20117;-75
2023/02/25 03:20:39;;;;;;;12.90;8.88;;;8.90;57.70;;;;;;5011283;28;20597;-75
2023/02/25 03:23:13;;;;;;;17.05;10.13;;;8.90;57.60;;;;;;4994309;28;20462;-75
2023/02/25 03:25:47;;;;;;;14.48;8.73;;;8.90;57.70;;;;;;5011622;28;20053;-75
2023/02/25 03:28:28;;;;;;;15.82;9.38;;;8.90;57.70;;;;;;4995530;28;20501;-75
2023/02/25 03:30:58;;;;;;;14.23;9.10;;;8.90;57.70;;;;;;4994494;28;20034;-74
2023/02/25 03:33:39;;;;;;;13.60;9.35;;;8.90;57.70;;;;;;5011794;28;20034;-75
2023/02/25 03:36:12;;;;;;;14.43;8.75;;;9.00;57.70;;;;;;4992336;28;20437;-75
2023/02/25 03:38:45;;;;;;;14.82;8.70;;;9.00;57.80;;;;;;5012456;28;20041;-74
2023/02/25 03:41:15;;;;;;;13.75;8.90;;;8.90;57.80;;;;;;4992978;28;20498;-73
2023/02/25 03:43:47;;;;;;;12.35;8.35;;;8.90;57.80;;;;;;5011879;28;20038;-73
2023/02/25 03:46:15;;;;;;;11.88;7.78;;;9.00;57.80;;;;;;4979549;28;20445;-73
2023/02/25 03:48:41;;;;;;;10.65;7.80;;;9.00;57.80;;;;;;5011874;28;20070;-73
2023/02/25 03:51:13;;;;;;;12.70;8.38;;;8.90;57.80;;;;;;4994045;28;20145;-72
2023/02/25 03:53:40;;;;;;;11.43;8.05;;;9.00;57.90;;;;;;4994933;28;20501;-72
2023/02/25 03:56:27;;;;;;;16.85;9.15;;;9.00;58.00;;;;;;4995982;28;20478;-72
2023/02/25 03:58:53;;;;;;;11.32;8.10;;;9.00;58.20;;;;;;5011744;28;20034;-73
2023/02/25 04:01:29;;;;;;;11.93;8.07;;;8.90;58.10;;;;;;4996476;28;20421;-73
2023/02/25 04:03:54;;;;;;;;;;;9.00;58.10;;;;;;5011434;28;20038;-72
2023/02/25 04:06:23;;;;;;;13.30;8.75;;;9.00;58.10;;;;;;5010585;28;19968;-73
2023/02/25 04:08:50;;;;;;;13.38;8.60;;;9.00;58.10;;;;;;4999865;28;20045;-72
2023/02/25 04:11:16;;;;;;;12.15;8.23;;;9.00;58.10;;;;;;5010279;28;20038;-72
2023/02/25 04:13:43;;;;;;;12.73;8.45;;;9.00;58.10;;;;;;5010859;28;20041;-71
2023/02/25 04:16:09;;;;;;;11.25;8.15;;;9.00;58.10;;;;;;4994470;28;20576;-71
2023/02/25 04:18:35;;;;;;;12.82;8.25;;;9.00;58.00;;;;;;5011485;28;20034;-72
2023/02/25 04:21:06;;;;;;;13.48;8.57;;;9.00;58.10;;;;;;5011589;28;20084;-72
2023/02/25 04:23:33;;;;;;;12.23;8.50;;;9.00;58.10;;;;;;4997291;28;20617;-72
2023/02/25 04:25:59;;;;;;;12.52;8.40;;;9.00;58.00;;;;;;4996373;28;20069;-73
2023/02/25 04:28:25;;;;;;;12.40;8.70;;;9.00;58.00;;;;;;5011725;28;20038;-72
2023/02/25 04:30:51;;;;;;;13.68;9.60;;;9.00;58.00;;;;;;4997285;28;20088;-72
2023/02/25 04:33:17;;;;;;;12.48;8.38;;;9.00;58.00;;;;;;4996181;28;20112;-72
2023/02/25 04:35:43;;;;;;;14.60;8.57;;;9.00;58.00;;;;;;4995466;28;20060;-72
2023/02/25 04:38:09;;;;;;;12.07;8.45;;;9.00;58.00;;;;;;4995335;28;20030;-72
2023/02/25 04:40:36;;;;;;;11.65;8.05;;;9.00;58.10;;;;;;4996341;28;20133;-71
2023/02/25 04:43:02;;;;;;;12.65;8.00;;;9.00;58.10;;;;;;4994533;28;20375;-72
2023/02/25 04:45:28;;;;;;;14.00;8.23;;;9.00;58.10;;;;;;5008612;28;20033;-72
2023/02/25 04:47:56;;;;;;;13.00;8.35;;;9.00;58.20;;;;;;4994952;28;20613;-72
2023/02/25 04:50:23;;;;;;;13.10;8.73;;;9.00;58.10;;;;;;4991291;28;20462;-71
2023/02/25 04:52:49;;;;;;;12.45;8.32;;;9.00;58.20;;;;;;5010843;28;20510;-72
2023/02/25 04:55:15;;;;;;;12.07;8.23;;;9.10;58.20;;;;;;4994747;28;20060;-72
2023/02/25 04:57:41;;;;;;;12.43;8.48;;;9.00;58.20;;;;;;5009950;28;20030;-72
2023/02/25 05:00:18;;;;;;;11.40;8.40;;;9.10;58.30;;;;;;4994795;28;20045;-73
2023/02/25 05:02:47;;;;;;;12.63;8.27;;;9.10;58.30;;;;;;5005035;28;20619;-73
2023/02/25 05:05:14;;;;;;;11.38;8.18;;;9.00;58.20;;;;;;4991560;28;20124;-72
2023/02/25 05:07:40;;;;;;;12.60;8.20;;;9.10;58.30;;;;;;4993177;28;20034;-72
2023/02/25 05:10:09;;;;;;;11.35;8.00;;;9.10;58.30;;;;;;4993226;28;20038;-72
2023/02/25 05:12:35;;;;;;;12.15;8.00;;;9.10;58.40;;;;;;4994762;28;20595;-72
2023/02/25 05:15:04;;;;;;;12.35;7.75;;;9.10;58.30;;;;;;4993737;28;20560;-72
2023/02/25 05:17:31;;;;;;;13.23;8.05;;;9.10;58.30;;;;;;5011455;28;20045;-71
2023/02/25 05:19:57;;;;;;;11.27;8.18;;;9.10;58.30;;;;;;4994424;28;20044;-72
2023/02/25 05:22:24;;;;;;;10.45;7.88;;;9.10;58.30;;;;;;4996039;28;20038;-72
2023/02/25 05:24:50;;;;;;;11.77;7.88;;;9.10;58.40;;;;;;4995092;28;20034;-71
2023/02/25 05:27:16;;;;;;;12.50;7.82;;;9.10;58.40;;;;;;4994509;28;20108;-71
2023/02/25 05:29:42;;;;;;;10.38;8.00;;;9.10;58.40;;;;;;5010846;28;20502;-72
2023/02/25 05:32:08;;;;;;;10.35;7.70;;;9.10;58.40;;;;;;4993217;28;20031;-72
2023/02/25 05:34:34;;;;;;;10.85;7.50;;;9.20;58.60;;;;;;4994938;28;20077;-72
2023/02/25 05:37:00;;;;;;;9.32;6.80;;;9.10;58.50;;;;;;4992720;28;20044;-72
2023/02/25 05:39:26;;;;;;;10.30;7.18;;;9.20;58.60;;;;;;4993606;28;20035;-72
2023/02/25 05:41:53;;;;;;;11.50;8.20;;;9.20;58.50;;;;;;4992845;28;20048;-71
2023/02/25 05:44:19;;;;;;;10.65;7.38;;;9.20;58.50;;;;;;4993371;28;20089;-70
2023/02/25 05:46:45;;;;;;;10.82;7.40;;;9.20;58.60;;;;;;4995139;28;20092;-71
2023/02/25 05:49:11;;;;;;;11.10;7.68;;;9.20;58.70;;;;;;4994063;28;20548;-71
2023/02/25 05:51:37;;;;;;;10.45;7.28;;;9.20;58.70;;;;;;4994012;28;20153;-71
2023/02/25 05:54:03;;;;;;;10.43;7.35;;;9.20;58.60;;;;;;4994696;28;20133;-71
2023/02/25 05:56:29;;;;;;;11.45;8.18;;;9.20;58.70;;;;;;4993531;28;20129;-71
2023/02/25 05:58:56;;;;;;;11.75;7.93;;;9.30;58.80;;;;;;5013771;28;20034;-71
2023/02/25 06:01:26;;;;;;;10.02;7.47;;;9.20;58.70;;;;;;4997724;28;20034;-71
2023/02/25 06:03:57;;;;;;;11.85;8.02;;;9.30;58.80;;;;;;4985967;28;20033;-71
2023/02/25 06:06:25;;;;;;;11.70;7.80;;;9.30;58.80;;;;;;4997902;28;20093;-71
2023/02/25 06:08:52;;;;;;;10.60;7.00;;;9.30;58.80;;;;;;4997958;28;20093;-71
2023/02/25 06:11:24;;;;;;;9.75;7.38;;;9.30;58.70;;;;;;4997441;28;20402;-74
2023/02/25 06:13:51;;;;;;;8.75;6.43;;;9.30;58.70;;;;;;5012502;28;20063;-74
2023/02/25 06:16:18;;;;;;;11.20;7.28;;;9.30;58.80;;;;;;4999120;28;20129;-73
2023/02/25 06:18:45;;;;;;;10.50;7.22;;;9.30;58.80;;;;;;4994518;28;20597;-75
2023/02/25 06:21:13;;;;;;;8.95;6.80;;;9.30;58.90;;;;;;4996576;28;20026;-75
2023/02/25 06:23:40;;;;;;;10.38;6.90;;;9.40;59.00;;;;;;5012520;28;20096;-74
2023/02/25 06:26:08;;;;;;;12.88;7.07;;;9.40;59.10;;;;;;4997106;28;20034;-73
2023/02/25 06:28:35;;;;;;;11.32;7.25;;;9.40;59.10;;;;;;5012360;28;20129;-73
2023/02/25 06:31:01;;;;;;;10.95;6.78;;;9.40;59.10;;;;;;4995138;28;20033;-73
2023/02/25 06:33:30;;;;;;;8.93;6.57;;;9.40;59.10;;;;;;4996969;28;20045;-74
2023/02/25 06:35:57;;;;;;;8.98;6.28;;;9.40;59.00;;;;;;4994768;28;20047;-74
2023/02/25 06:38:24;;;;;;;9.68;6.75;;;9.40;58.90;;;;;;4996646;28;20069;-72
2023/02/25 06:40:50;;;;;;;11.35;7.20;;;9.50;59.00;;;;;;4997704;28;20034;-74
2023/02/25 06:43:16;;;;;;;10.65;6.72;;;9.50;59.10;;;;;;5012259;28;20041;-74
2023/02/25 06:45:42;;;;;;;9.57;7.22;;;9.50;59.00;;;;;;4996875;28;20415;-74
2023/02/25 06:48:09;;;;;;;8.38;6.40;;;9.50;59.00;;;;;;4996483;28;20030;-75
2023/02/25 06:50:38;;;;;;;9.45;6.50;;;9.50;58.80;;;;;;4994583;28;20521;-74
2023/02/25 06:53:04;;;;;;;8.98;6.57;;;9.50;58.80;;;;;;5009748;28;20045;-75
2023/02/25 06:55:30;;;;;;;8.50;6.43;;;9.50;58.80;;;;;;5007372;28;20144;-75
2023/02/25 06:57:56;;;;;;;10.02;6.45;;;9.60;58.80;;;;;;4994778;28;20066;-75
2023/02/25 07:00:22;;;;;;;9.95;6.70;;;9.50;58.80;;;;;;5010758;28;20062;-75
2023/02/25 07:02:48;;;;;;;8.73;6.45;;;9.60;58.70;;;;;;4990459;28;20045;-75
2023/02/25 07:05:14;;;;;;;9.00;6.70;;;9.60;58.80;;;;;;4993063;28;20030;-76
2023/02/25 07:07:40;;;;;;;9.68;6.93;;;9.60;58.70;;;;;;4992252;28;20520;-77
2023/02/25 07:10:07;;;;;;;9.55;6.65;;;9.60;58.70;;;;;;5004297;28;20039;-76
2023/02/25 07:12:33;;;;;;;8.50;5.75;;;9.60;58.60;;;;;;4993827;28;20545;-77
2023/02/25 07:14:59;;;;;;;9.60;6.32;;;9.60;58.60;;;;;;4994408;28;20148;-76
2023/02/25 07:17:25;;;;;;;8.23;5.97;;;9.60;58.70;;;;;;5003857;28;20126;-75
2023/02/25 07:19:51;;;;;;;8.73;5.68;;;9.60;58.60;;;;;;5009624;28;20035;-74
2023/02/25 07:22:18;;;;;;;8.70;6.18;;;9.70;58.60;;;;;;4978593;28;20046;-75
2023/02/25 07:24:44;;;;;;;7.93;5.78;;;9.70;58.70;;;;;;4992758;28;20034;-75
2023/02/25 07:27:12;;;;;;;8.57;5.88;;;9.70;58.60;;;;;;4991949;28;20084;-75
2023/02/25 07:29:39;;;;;;;7.88;5.28;;;9.70;58.60;;;;;;4993542;28;20117;-76
2023/02/25 07:32:07;;;;;;;10.48;5.90;;;9.70;58.60;;;;;;4994287;28;20628;-78
2023/02/25 07:34:34;;;;;;;9.23;5.50;;;9.80;58.60;;;;;;4976854;28;20072;-76
2023/02/25 07:37:00;;;;;;;7.00;5.28;;;9.80;58.50;;;;;;5009210;28;20037;-77
2023/02/25 07:39:26;;;;;;;11.07;5.22;;;9.80;58.70;;;;;;5009088;28;20030;-76
2023/02/25 07:41:52;;;;;;;9.80;5.75;;;9.80;58.60;;;;;;5009435;28;20057;-76
2023/02/25 07:44:19;;;;;;;7.63;5.53;;;9.90;58.90;;;;;;5008334;28;20822;-77
2023/02/25 07:46:45;;;;;;;9.70;5.85;;;9.90;58.90;;;;;;5008821;28;20034;-76
2023/02/25 07:49:11;;;;;;;12.95;5.90;;;9.90;58.90;;;;;;4994353;28;20038;-76
2023/02/25 07:51:37;;;;;;;10.90;5.60;;;9.90;59.10;;;;;;4995514;28;20450;-76
2023/02/25 07:54:03;;;;;;;6.60;5.05;;;9.90;59.00;;;;;;4996174;28;20034;-77
2023/02/25 07:56:29;;;;;;;7.20;5.40;;;9.90;59.10;;;;;;5011117;28;20124;-77
2023/02/25 07:58:55;;;;;;;6.65;5.03;;;9.90;59.10;;;;;;4996710;28;20038;-75
2023/02/25 08:01:23;;;;;;;8.73;5.35;;;10.00;59.10;;;;;;4995331;28;20044;-75
2023/02/25 08:03:54;;;;;;;7.85;5.53;;;10.00;59.50;;;;;;4996240;28;20029;-75
2023/02/25 08:06:20;;;;;;;10.05;5.03;;;10.00;59.50;;;;;;4996898;28;20030;-77
2023/02/25 08:08:46;;;;;;;8.40;5.22;;;10.00;59.40;;;;;;5012206;28;20073;-78
2023/02/25 08:11:14;;;;;;;8.77;5.28;;;10.00;59.50;;;;;;5011619;28;20562;-75
2023/02/25 08:13:40;;;;;;;8.15;4.90;;;10.00;59.60;;;;;;4996983;28;20232;-78
2023/02/25 08:16:12;;;;;;;7.60;5.20;;;10.10;59.50;;;;;;4995090;28;20049;-74
2023/02/25 08:18:41;;;;;;;6.40;4.40;;;10.10;59.30;;;;;;4994468;28;20073;-74
2023/02/25 08:21:11;;;;;;;6.93;4.82;;;10.10;59.20;;;;;;4994258;28;20544;-76
2023/02/25 08:23:37;;;;;;;5.95;4.53;;;10.10;59.40;;;;;;5010100;28;20089;-73
2023/02/25 08:26:06;;;;;;;8.63;4.50;;;10.20;59.90;;;;;;4993750;28;20149;-75
2023/02/25 08:28:32;;;;;;;7.35;4.90;;;10.10;60.20;;;;;;4993897;28;20030;-73
2023/02/25 08:31:00;;;;;;;5.30;4.22;;;10.20;60.00;;;;;;4995246;28;20096;-69
2023/02/25 08:33:28;;;;;;;8.73;4.10;;;10.20;66.90;;;;;;5010689;28;20398;-75
2023/02/25 08:35:55;;;;;;;6.25;4.28;;;10.40;64.20;;;;;;4994630;28;20124;-75
2023/02/25 08:38:20;;;;;;;5.55;3.75;;;10.50;65.50;;;;;;4996116;28;20358;-75
2023/02/25 08:40:46;;;;;;;4.90;3.40;;;10.50;63.30;;;;;;5010425;28;20048;-75
2023/02/25 08:43:12;;;;;;;8.00;3.95;;;10.60;62.60;;;;;;4995183;28;20039;-77
2023/02/25 08:45:40;;;;;;;7.03;4.28;;;10.60;61.90;;;;;;4994478;28;20042;-78
2023/02/25 08:48:07;;;;;;;7.35;4.15;;;10.60;61.30;;;;;;5009042;28;20042;-76
2023/02/25 08:50:33;;;;;;;6.68;4.45;;;10.60;61.00;;;;;;4994441;28;20039;-76
2023/02/25 08:52:59;;;;;;;7.90;3.92;;;10.60;60.60;;;;;;4994983;28;20034;-75
2023/02/25 08:55:25;;;;;;;9.40;4.38;;;10.60;60.40;;;;;;4994141;28;20037;-74
2023/02/25 08:57:51;;;;;;;6.35;4.15;;;10.60;60.10;;;;;;5009140;28;20574;-74
2023/02/25 09:00:18;;;;;;;6.70;4.45;;;10.70;59.90;;;;;;5009109;28;20030;-75
2023/02/25 09:02:46;;;;;;;6.72;4.00;;;10.60;59.90;;;;;;4993499;28;20033;-71
2023/02/25 09:05:12;;;;;;;9.85;4.03;;;10.80;65.30;;;;;;4994378;28;20036;-73
2023/02/25 09:07:38;;;;;;;6.20;3.45;;;10.90;67.10;;;;;;4993723;28;20034;-70
2023/02/25 09:10:06;;;;;;;6.47;3.70;;;11.20;67.90;;;;;;4993243;28;20331;-69
2023/02/25 09:12:32;;;;;;;4.45;3.60;;;11.60;66.90;;;;;;4995426;28;20116;-68
2023/02/25 09:14:58;;;;;;;5.65;3.90;;;11.90;66.60;;;;;;4993720;28;20042;-69
2023/02/25 09:17:24;;;;;;;5.15;3.25;;;12.10;65.70;;;;;;4994395;28;20046;-72
2023/02/25 09:19:50;;;;;;;5.50;3.17;;;12.30;65.00;;;;;;4994798;28;20029;-73
2023/02/25 09:22:18;;;;;;;4.55;2.72;;;12.30;64.00;;;;;;4993402;28;20501;-75
2023/02/25 09:24:45;;;;;;;5.13;3.60;;;12.50;63.30;;;;;;4993530;28;20034;-72
2023/02/25 09:27:11;;;;;;;9.35;3.53;;;12.40;61.80;;;;;;5011633;28;20034;-72
2023/02/25 09:29:38;;;;;;;7.65;3.47;;;12.60;63.40;;;;;;4994311;28;20042;-74
2023/02/25 09:32:05;;;;;;;4.53;2.83;;;12.70;63.10;;;;;;4997231;28;20104;-70
2023/02/25 09:34:34;;;;;;;3.50;3.10;;;12.90;62.70;;;;;;4997714;28;20034;-71
2023/02/25 09:37:03;;;;;;;9.00;3.60;;;13.10;62.50;;;;;;4999251;28;20030;-69
2023/02/25 09:39:30;;;;;;;6.60;3.40;;;13.40;61.70;;;;;;4999246;28;20031;-70
2023/02/25 09:42:08;;;;;;;5.95;3.15;;;13.50;61.00;;;;;;4998355;28;20041;-71
2023/02/25 09:44:45;;;;;;;7.00;3.00;;;13.70;60.60;;;;;;4999155;28;20041;-71
2023/02/25 09:47:11;;;;;;;4.00;2.83;;;13.90;59.90;;;;;;4998398;28;20032;-70
2023/02/25 09:49:52;;;;;;;5.38;2.67;;;13.90;59.50;;;;;;4998989;28;20064;-70
2023/02/25 09:52:42;;;;;;;4.18;2.70;;;14.00;59.40;;;;;;4997306;28;20560;-71
2023/02/25 09:55:18;;;;;;;3.42;2.75;;;14.10;59.10;;;;;;4997170;28;20066;-71
2023/02/25 09:57:58;;;;;;;5.05;3.20;;;14.20;58.90;;;;;;4997536;28;20045;-70
2023/02/25 10:00:24;;;;;;;4.75;3.17;;;14.30;58.70;;;;;;4999135;28;20038;-70
2023/02/25 10:03:10;;;;;;;6.18;3.10;;;14.30;58.50;;;;;;4998112;28;20038;-69
2023/02/25 10:05:50;;;;;;;5.13;3.25;;;14.40;58.10;;;;;;4998599;28;20045;-72
2023/02/25 10:08:27;;;;;;;5.25;2.90;;;14.50;57.90;;;;;;5013836;28;20029;-71
2023/02/25 10:11:13;;;;;;;5.22;3.22;;;14.60;57.60;;;;;;4998961;28;20091;-69
2023/02/25 10:14:14;;;;;;;6.90;2.70;;;14.70;57.40;;;;;;4997477;28;20049;-70
2023/02/25 10:17:28;;;;;;;5.32;2.72;;;14.80;57.30;;;;;;4997728;28;20069;-80
2023/02/25 10:20:03;;;;;;;4.28;2.70;;;14.80;57.10;;;;;;4995824;28;20425;-73
2023/02/25 10:23:04;;;;;;;4.55;2.20;;;14.90;57.20;;;;;;4997798;28;20070;-73
2023/02/25 10:25:36;;;;;;;4.30;2.28;;;14.80;57.50;;;;;;4997031;28;20042;-71
2023/02/25 10:28:09;;;;;;;2.72;1.90;;;14.90;57.50;;;;;;4997223;28;20036;-72
2023/02/25 10:30:51;;;;;;;4.70;2.40;;;14.90;57.40;;;;;;4997997;28;20079;-72
2023/02/25 10:33:21;;;;;;;3.58;2.10;;;15.00;57.50;;;;;;4997152;28;20357;-78
2023/02/25 10:35:51;;;;;;;3.03;2.13;;;15.00;57.40;;;;;;5012137;28;20507;-72
2023/02/25 10:38:17;;;;;;;6.32;2.42;;;15.10;57.40;;;;;;4998466;28;20034;-70
2023/02/25 10:40:43;;;;;;;4.13;1.98;;;15.10;57.20;;;;;;4997978;28;20520;-71
2023/02/25 10:43:19;;;;;;;9.48;3.35;;;15.20;57.00;;;;;;4996721;28;20042;-74
2023/02/25 10:47:22;;;;;;;5.57;3.25;;;15.30;56.50;;;;;;5088735;27;20820;-76
2023/02/25 10:50:13;;;;;;;7.85;4.55;;;15.80;55.70;;;;;;5036699;28;20543;-75
2023/02/25 10:52:55;;;;;;;11.05;5.32;;;15.70;53.00;;;;;;5036110;28;20465;-75
2023/02/25 10:55:51;;;;;;;7.28;4.35;;;15.40;51.60;;;;;;5037221;28;20033;-72
2023/02/25 10:58:37;;;;;;;9.23;4.72;;;15.10;52.30;;;;;;5035995;28;20129;-75
2023/02/25 11:01:14;;;;;;;10.40;5.63;;;14.80;53.10;;;;;;5034889;28;20512;-77
2023/02/25 11:03:46;;;;;;;8.23;5.57;;;14.50;52.90;;;;;;5035869;28;20030;-78
2023/02/25 11:06:21;;;;;;;8.68;5.15;;;14.20;53.10;;;;;;5035187;28;20574;-75
2023/02/25 11:08:47;;;;;;;6.63;4.20;;;13.90;54.50;;;;;;5035973;28;20030;-76
2023/02/25 11:11:25;;;;;;;7.88;4.55;;;13.70;55.90;;;;;;5037181;28;20123;-76
2023/02/25 11:14:02;;;;;;;8.48;5.00;;;13.50;55.40;;;;;;5038898;28;20021;-78
2023/02/25 11:16:30;;;;;;;6.57;4.70;;;13.30;55.10;;;;;;5033628;28;20550;-76
2023/02/25 11:18:59;;;;;;;9.75;5.20;;;13.10;55.30;;;;;;5036317;28;20037;-77
2023/02/25 11:21:32;;;;;;;10.52;5.13;;;12.90;55.30;;;;;;5036927;28;20044;-73
2023/02/25 11:24:09;;;;;;;7.40;4.78;;;12.70;55.70;;;;;;5034186;28;20384;-78
2023/02/25 11:26:36;;;;;;;9.00;5.20;;;12.50;56.10;;;;;;5038109;28;20045;-78
2023/02/25 11:29:36;;;;;;;9.18;5.15;;;12.30;56.40;;;;;;5035287;28;20076;-76
2023/02/25 11:32:12;;;;;;;7.85;3.70;;;12.10;56.80;;;;;;5033906;28;20103;-71
2023/02/25 11:34:47;;;;;;;7.07;3.75;;;12.10;60.60;;;;;;5037324;28;20044;-77
2023/02/25 11:37:34;;;;;;;9.77;4.85;;;12.20;61.00;;;;;;5043383;28;20037;-76
2023/02/25 11:40:00;;;;;;;8.18;5.43;;;12.10;59.30;;;;;;5057172;28;20029;-77
2023/02/25 11:42:29;;;;;;;7.00;4.82;;;12.00;58.50;;;;;;5040505;28;20136;-77
2023/02/25 11:45:03;;;;;;;7.85;5.60;;;11.90;58.30;;;;;;5042880;28;20037;-74
2023/02/25 11:47:36;;;;;;;6.25;4.43;;;11.80;58.40;;;;;;5040472;28;20590;-79
2023/02/25 11:50:22;;;;;;;9.00;4.88;;;11.70;60.30;;;;;;5041886;28;20087;-81
2023/02/25 11:53:03;;;;;;;6.38;4.60;;;11.60;60.50;;;;;;5037539;28;20033;-75
2023/02/25 11:55:50;;;;;;;6.68;5.93;;;11.50;59.90;;;;;;5039554;28;20044;-78
2023/02/25 11:58:36;;;;;;;7.10;4.93;;;11.40;59.70;;;;;;5026015;28;20421;-79
2023/02/25 12:01:25;;;;;;;6.93;5.60;;;11.30;59.80;;;;;;5020065;28;20456;-80
2023/02/25 12:04:17;;;;;;;8.52;5.07;;;11.30;60.00;;;;;;5007230;28;20044;-79
2023/02/25 12:07:20;;;;;;;10.13;5.32;;;11.10;60.30;;;;;;5022476;28;20578;-79
2023/02/25 12:10:18;;;;;;;6.85;4.88;;;11.10;60.60;;;;;;5022868;28;20437;-81
2023/02/25 12:13:10;;;;;;;7.43;4.93;;;11.00;61.00;;;;;;5021513;28;20048;-79
2023/02/25 12:15:49;;;;;;;8.38;5.18;;;10.90;61.20;;;;;;5054136;28;20158;-78
2023/02/25 12:18:27;;;;;;;6.35;4.20;;;10.80;61.40;;;;;;5024136;28;20068;-80
2023/02/25 12:21:31;;;;;;;4.75;4.22;;;10.80;61.60;;;;;;5018734;28;20086;-77
2023/02/25 12:24:03;;;;;;;7.88;4.50;;;10.70;61.60;;;;;;4987625;28;20050;-78
2023/02/25 12:26:49;;;;;;;8.95;5.18;;;10.60;61.20;;;;;;4998978;28;20582;-78
2023/02/25 12:29:21;;;;;;;8.07;4.80;;;10.50;61.30;;;;;;5019887;28;20034;-81
2023/02/25 12:32:09;;;;;;;6.75;4.80;;;10.40;61.40;;;;;;5002399;28;20576;-82
2023/02/25 12:35:05;;;;;;;10.73;5.40;;;10.30;61.80;;;;;;5020718;28;20443;-82
2023/02/25 12:38:06;;;;;;;8.77;4.70;;;10.10;62.10;;;;;;5010283;28;20065;-81
2023/02/25 12:40:55;;;;;;;7.25;4.82;;;10.00;62.50;;;;;;5021627;28;20046;-83
2023/02/25 12:43:46;;;;;;;6.72;4.70;;;9.90;62.80;;;;;;5010197;28;20064;-78
2023/02/25 12:46:30;;;;;;;6.50;4.72;;;9.80;63.10;;;;;;5008290;28;20046;-79
2023/02/25 12:48:58;;;;;;;7.05;4.80;;;9.80;63.20;;;;;;5004780;28;20044;-82
2023/02/25 12:51:45;;;;;;;6.72;5.25;;;9.70;63.40;;;;;;5001378;28;20034;-84
2023/02/25 12:54:49;;;;;;;7.35;5.00;;;9.60;63.40;;;;;;5003382;28;20612;-78
2023/02/25 12:57:34;;;;;;;8.50;5.63;;;9.60;63.70;;;;;;4979988;28;20477;-82
2023/02/25 13:00:46;;;;;;;7.40;5.00;;;9.50;64.00;;;;;;4971852;28;20121;-80
2023/02/25 13:03:20;;;;;;;7.60;5.30;;;9.50;64.10;;;;;;4983751;28;20445;-80
2023/02/25 13:06:00;;;;;;;6.38;5.03;;;9.40;64.30;;;;;;4983185;28;20098;-81
2023/02/25 13:08:42;;;;;;;6.63;5.00;;;9.30;64.70;;;;;;4950599;28;20653;-79
2023/02/25 13:11:31;;;;;;;5.47;4.95;;;9.30;64.60;;;;;;4982794;28;20042;-76
2023/02/25 13:14:11;;;;;;;6.63;4.43;;;9.20;65.00;;;;;;4983885;28;20042;-78